Latest Weather Observations for Scherger

IDQ60801

Issued at 5:32 pm EST Tuesday 21 February 2017 (issued every 30 minutes, with the page automatically refreshed every 10 minutes)

About weather observations | Map of weather stations | Latest weather observations for QLD | Other Formats
Station Details ID: 027075 Name: SCHERGER RAAF Lat: -12.62 Lon: 142.09 Height: 39.34 m
Data from the previous 72 hours. | See also: Recent months at Scherger
Date/Time
EST
Temp
°C
App
Temp
°C
Dew
Point
°C
Rel
Hum
%
Delta-T
°C
Wind Press
QNH
hPa
Press
MSL
hPa
Rain since
9am
mm
Dir  Spd
km/h
Gust
km/h
Spd
kts
Gust
kts
21/05:00pm 28.1 32.8 24.3 80 2.6 N 7 11 4 6 1008.9 1008.6 0.6
21/04:30pm 28.0 32.9 24.6 82 2.4 N 7 13 4 7 1009.0 1008.7 0.6
21/04:00pm 27.7 32.5 24.5 83 2.2 NNW 7 13 4 7 1009.3 1009.0 0.6
21/03:30pm 27.2 31.6 24.5 85 1.9 N 9 15 5 8 1009.5 1009.2 0.6
21/03:00pm 26.9 31.2 24.2 85 1.9 N 9 19 5 10 1009.3 1009.0 0.6
21/02:30pm 26.8 31.5 24.3 86 1.7 NNW 7 15 4 8 1009.8 1009.5 0.6
21/02:00pm 26.4 30.4 23.7 85 1.9 N 9 13 5 7 1010.2 1009.9 0.6
21/01:30pm 26.9 30.0 23.6 82 2.3 N 13 20 7 11 1011.0 1010.7 0.4
21/01:00pm 27.6 31.5 23.6 79 2.8 N 9 17 5 9 1011.3 1011.0 0.4
21/12:30pm 27.8 32.4 23.8 79 2.8 N 6 11 3 6 1012.1 1011.8 0.4
21/12:00pm 27.7 31.8 23.9 80 2.6 N 9 17 5 9 1012.2 1011.9 0.2
21/11:30am 27.2 30.8 23.7 81 2.4 N 11 20 6 11 1012.2 1011.9 0.2
21/11:00am 26.4 30.4 24.4 89 1.4 N 11 19 6 10 1012.4 1012.1 0.2
21/10:30am 25.5 30.2 24.3 93 0.8 N 7 13 4 7 1012.5 1012.2 0.2
21/10:00am 24.5 28.6 23.3 93 0.8 NNE 7 11 4 6 1012.6 1012.3 0.2
21/09:30am 24.2 27.8 23.0 93 0.8 NNE 9 17 5 9 1012.2 1011.9 0.2
21/09:00am 24.0 26.9 22.4 91 1.1 N 11 17 6 9 1012.4 1012.1 21.6
21/08:30am 24.5 26.5 22.9 91 1.1 N 17 26 9 14 1012.0 1011.7 21.4
21/08:00am 24.8 29.4 24.1 96 0.5 NNE 7 13 4 7 1011.3 1011.0 21.4
21/07:30am 24.3 28.7 23.4 95 0.6 NW 6 9 3 5 1010.8 1010.5 20.0
21/07:00am 24.1 29.3 22.9 93 0.8 CALM 0 7 0 4 1010.3 1010.0 13.6
21/06:30am 25.1 30.2 24.1 94 0.7 N 4 15 2 8 1010.3 1010.0 3.4
21/06:00am 25.1 31.0 24.1 94 0.7 CALM 0 0 0 0 1009.6 1009.3 3.4
21/05:30am 25.2 29.6 23.8 92 1.0 NE 7 13 4 7 1009.3 1009.0 1.4
21/05:00am 25.3 29.8 23.9 92 1.0 NE 7 11 4 6 1008.9 1008.6 1.4
21/04:30am 25.2 29.8 23.8 92 1.0 NE 6 9 3 5 1008.9 1008.6 1.4
21/04:00am 25.4 30.0 23.8 91 1.1 ENE 6 9 3 5 1008.6 1008.3 1.4
21/03:30am 25.5 30.0 23.9 91 1.1 NE 7 13 4 7 1008.6 1008.3 1.4
21/03:00am 25.7 30.5 24.1 91 1.1 NE 6 11 3 6 1008.7 1008.4 1.4
21/02:30am 25.6 30.2 24.2 92 1.0 NE 7 11 4 6 1008.8 1008.5 1.4
21/02:00am 25.4 30.1 24.0 92 1.0 NE 6 7 3 4 1009.1 1008.8 1.4
21/01:30am 25.3 31.1 23.9 92 1.0 CALM 0 0 0 0 1009.3 1009.0 1.4
21/01:00am 25.3 30.2 23.7 91 1.1 ENE 4 9 2 5 1009.5 1009.2 1.4
21/12:30am 25.4 30.0 23.8 91 1.1 NE 6 9 3 5 1009.9 1009.6 1.4
21/12:00am 25.5 30.0 23.7 90 1.2 NE 6 9 3 5 1010.1 1009.8 1.4
 
Date/Time
EST
Temp
°C
App
Temp
°C
Dew
Point
°C
Rel
Hum
%
Delta-T
°C
Wind Press
QNH
hPa
Press
MSL
hPa
Rain since
9am
mm
Dir  Spd
km/h
Gust
km/h
Spd
kts
Gust
kts
20/11:30pm 25.6 31.3 23.7 89 1.3 CALM 0 6 0 3 1010.1 1009.8 1.4
20/11:00pm 25.6 31.3 23.7 89 1.3 CALM 0 0 0 0 1010.0 1009.7 1.4
20/10:30pm 25.6 30.4 23.5 88 1.4 NE 4 7 2 4 1010.0 1009.7 1.4
20/10:00pm 25.7 30.8 23.4 87 1.6 NE 2 7 1 4 1010.0 1009.7 1.4
20/09:30pm 25.8 30.1 23.3 86 1.7 NE 6 9 3 5 1010.0 1009.7 1.4
20/09:00pm 26.1 30.3 23.2 84 2.0 NE 6 9 3 5 1009.8 1009.5 1.4
20/08:30pm 26.2 31.5 23.1 83 2.1 CALM 0 0 0 0 1009.5 1009.2 1.4
20/08:00pm 26.4 30.7 22.7 80 2.5 NNE 4 9 2 5 1008.9 1008.6 1.4
20/07:30pm 27.0 30.3 22.6 77 3.0 N 9 15 5 8 1008.6 1008.3 1.4
20/07:00pm 27.1 31.3 23.1 79 2.7 NNE 6 9 3 5 1007.9 1007.6 1.4
20/06:30pm 27.4 31.9 23.6 80 2.6 NNW 6 11 3 6 1007.9 1007.6 1.4
20/06:00pm 27.9 31.9 23.7 78 2.9 NNW 9 17 5 9 1007.8 1007.5 1.4
20/05:30pm 28.1 30.9 23.7 77 3.0 N 15 22 8 12 1007.4 1007.1 1.4
20/05:00pm 28.2 31.3 23.6 76 3.2 N 13 24 7 13 1007.3 1007.0 1.4
20/04:30pm 28.1 31.7 23.7 77 3.0 N 11 19 6 10 1007.4 1007.1 1.4
20/04:00pm 27.8 31.4 23.8 79 2.8 N 11 17 6 9 1007.4 1007.1 1.4
20/03:30pm 27.5 31.5 23.7 80 2.6 NNE 9 13 5 7 1007.3 1007.0 1.4
20/03:00pm 27.4 32.0 24.1 82 2.3 NNE 7 13 4 7 1007.3 1007.0 1.4
20/02:30pm 27.4 30.7 23.8 81 2.5 NNE 13 24 7 13 1007.4 1007.1 1.4
20/02:00pm 27.6 31.9 24.2 82 2.4 NNE 9 15 5 8 1007.9 1007.6 1.4
20/01:30pm 30.3 33.9 23.7 68 4.6 NNW 11 19 6 10 1007.9 1007.6 0.2
20/01:00pm 29.4 31.2 22.6 67 4.6 N 17 30 9 16 1008.3 1008.0 0.2
20/12:30pm 29.9 32.9 23.3 67 4.5 N 13 24 7 13 1008.9 1008.6 0.2
20/12:00pm 29.1 30.7 22.1 66 4.7 N 17 28 9 15 1009.3 1009.0 0.2
20/11:30am 30.0 32.7 23.4 67 4.5 N 15 26 8 14 1009.4 1009.1 0.2
20/11:00am 29.8 32.5 23.5 69 4.4 NNE 15 26 8 14 1009.6 1009.3 0.2
20/10:30am 29.1 33.0 24.2 75 3.4 N 11 20 6 11 1010.2 1009.9 0.2
20/10:00am 27.8 31.8 23.8 79 2.8 NNE 9 17 5 9 1010.2 1009.9 0.0
20/09:30am 27.5 31.0 23.5 79 2.7 NNE 11 19 6 10 1010.3 1010.0 0.0
20/09:00am 26.8 30.6 23.5 82 2.3 NE 9 17 5 9 1010.0 1009.7 12.4
20/08:30am 26.3 30.6 24.3 89 1.4 NE 9 19 5 10 1009.8 1009.5 12.4
20/08:00am 25.3 30.0 24.3 94 0.7 NE 7 13 4 7 1009.7 1009.4 12.4
20/07:30am 24.6 29.1 23.7 95 0.6 NE 6 9 3 5 1009.6 1009.3 12.4
20/07:00am 24.6 28.9 23.7 95 0.6 NE 7 9 4 5 1009.4 1009.1 12.4
20/06:30am 24.7 29.1 23.8 95 0.6 NE 7 11 4 6 1008.8 1008.5 12.4
20/06:00am 24.9 29.4 24.0 95 0.6 NNE 7 11 4 6 1008.5 1008.2 12.0
20/05:30am 25.1 30.1 23.9 93 0.8 N 4 9 2 5 1008.0 1007.7 6.0
20/05:00am 25.0 29.7 24.0 94 0.7 NE 6 9 3 5 1007.7 1007.4 6.0
20/04:30am 24.7 29.2 23.7 94 0.7 ENE 6 9 3 5 1007.4 1007.1 6.0
20/04:00am 24.5 29.9 23.3 93 0.8 CALM 0 0 0 0 1007.0 1006.7 6.0
20/03:30am 24.6 29.5 23.6 94 0.7 ENE 4 7 2 4 1007.0 1006.7 6.0
20/03:00am 24.7 30.4 23.7 94 0.7 CALM 0 0 0 0 1007.2 1006.9 6.0
20/02:30am 24.7 29.6 23.7 94 0.7 NE 4 7 2 4 1007.3 1007.0 6.0
20/02:00am 24.6 29.1 23.6 94 0.7 NE 6 7 3 4 1007.6 1007.3 6.0
20/01:30am 24.6 29.1 23.6 94 0.7 E 6 9 3 5 1007.8 1007.5 6.0
20/01:00am 24.6 29.7 23.4 93 0.8 ENE 2 7 1 4 1008.4 1008.1 6.0
20/12:30am 24.8 30.4 23.6 93 0.8 CALM 0 0 0 0 1008.9 1008.6 6.0
20/12:00am 24.8 29.3 23.6 93 0.8 ENE 6 9 3 5 1008.9 1008.6 6.0
 
Date/Time
EST
Temp
°C
App
Temp
°C
Dew
Point
°C
Rel
Hum
%
Delta-T
°C
Wind Press
QNH
hPa
Press
MSL
hPa
Rain since
9am
mm
Dir  Spd
km/h
Gust
km/h
Spd
kts
Gust
kts
19/11:30pm 24.9 30.2 23.7 93 0.8 NNE 2 6 1 3 1009.2 1008.9 6.0
19/11:00pm 24.9 29.4 23.7 93 0.8 NE 6 9 3 5 1009.3 1009.0 6.0
19/10:30pm 25.0 29.7 24.0 94 0.7 NE 6 9 3 5 1009.2 1008.9 6.0
19/10:00pm 24.9 29.4 23.9 94 0.7 NE 7 11 4 6 1009.2 1008.9 6.0
19/09:30pm 24.6 30.0 23.2 92 0.9 CALM 0 0 0 0 1009.2 1008.9 6.0
19/09:00pm 24.6 29.0 22.8 90 1.2 SE 4 9 2 5 1008.8 1008.5 5.8
19/08:30pm 25.0 28.9 22.9 88 1.4 NNE 7 11 4 6 1008.8 1008.5 5.8
19/08:00pm 27.9 33.6 23.7 78 2.9 CALM 0 0 0 0 1008.4 1008.1 0.6
19/07:30pm 28.3 33.6 23.0 73 3.6 CALM 0 0 0 0 1008.1 1007.8 0.6
19/07:00pm 28.8 33.2 22.8 70 4.1 W 4 13 2 7 1007.5 1007.2 0.6
19/06:30pm 29.4 33.1 22.6 67 4.6 NW 7 17 4 9 1006.9 1006.6 0.6
19/06:00pm 30.0 33.7 23.2 67 4.7 NNW 9 17 5 9 1006.4 1006.1 0.6
19/05:30pm 30.9 33.6 22.8 62 5.6 NNW 13 20 7 11 1006.4 1006.1 0.6
19/05:00pm 31.0 34.0 22.6 61 5.8 NNW 11 19 6 10 1006.1 1005.8 0.6
19/04:30pm 30.9 32.3 21.9 58 6.1 NNW 17 24 9 13 1006.2 1005.9 0.6
19/04:00pm 31.6 34.6 23.4 61 5.7 NNW 13 20 7 11 1006.3 1006.0 0.6
19/03:30pm 31.6 33.4 22.6 59 6.2 NNW 17 32 9 17 1006.4 1006.1 0.6
19/03:00pm 31.1 33.0 22.1 58 6.1 NNW 15 28 8 15 1006.6 1006.3 0.6
19/02:30pm 31.0 33.1 23.1 63 5.4 N 17 28 9 15 1007.2 1006.9 0.6
19/02:00pm 31.1 34.2 24.2 66 4.8 N 15 24 8 13 1007.6 1007.3 0.6
19/01:30pm 30.1 33.5 24.0 70 4.2 N 13 20 7 11 1008.0 1007.7 0.6
19/01:00pm 29.3 33.3 23.7 72 3.9 N 9 15 5 8 1008.4 1008.1 0.6
19/12:30pm 29.7 32.7 23.4 69 4.3 N 13 20 7 11 1009.0 1008.7 0.6
19/12:00pm 29.9 34.3 24.5 73 3.8 NW 9 15 5 8 1009.0 1008.7 0.6
19/11:30am 31.6 35.0 24.0 64 5.3 N 13 24 7 13 1009.0 1008.7 0.2
19/11:00am 30.8 34.8 23.7 66 4.9 NNE 9 19 5 10 1009.2 1008.9 0.2
19/10:30am 30.8 34.9 25.2 72 4.0 NNE 13 19 7 10 1009.7 1009.4 0.2
19/10:00am 30.4 35.5 25.5 75 3.5 NNE 9 17 5 9 1010.0 1009.7 0.2
19/09:30am 28.7 33.3 24.7 79 2.8 NNE 9 15 5 8 1010.1 1009.8 0.0
19/09:00am 27.9 32.3 24.5 82 2.4 NNE 9 19 5 10 1010.2 1009.9 0.2
19/08:30am 27.3 31.8 24.6 85 1.9 NNE 9 13 5 7 1010.5 1010.2 0.2
19/08:00am 26.3 31.8 24.7 91 1.1 N 4 9 2 5 1010.3 1010.0 0.2
19/07:30am 25.4 30.7 24.4 94 0.7 NNE 4 9 2 5 1009.9 1009.6 0.2
19/07:00am 25.0 30.1 24.1 95 0.6 NE 4 9 2 5 1009.5 1009.2 0.2
19/06:30am 24.7 29.3 23.8 95 0.6 NNE 6 9 3 5 1009.2 1008.9 0.2
19/06:00am 24.8 29.3 23.9 95 0.6 NE 7 11 4 6 1008.8 1008.5 0.2
19/05:30am 24.8 29.2 23.8 94 0.7 NE 7 11 4 6 1008.7 1008.4 0.2
19/05:00am 24.9 29.6 23.9 94 0.7 NNE 6 11 3 6 1008.4 1008.1 0.2
19/04:30am 24.9 29.6 23.9 94 0.7 NNE 6 11 3 6 1008.7 1008.4 0.2
19/04:00am 25.0 29.7 24.0 94 0.7 NNE 6 9 3 5 1008.8 1008.5 0.2
19/03:30am 25.0 29.7 24.0 94 0.7 NE 6 9 3 5 1008.9 1008.6 0.2
19/03:00am 25.1 29.9 24.1 94 0.7 NNE 6 9 3 5 1009.0 1008.7 0.2
19/02:30am 25.0 30.7 23.8 93 0.8 CALM 0 9 0 5 1009.2 1008.9 0.2
19/02:00am 25.2 30.3 24.0 93 0.8 NE 4 6 2 3 1009.8 1009.5 0.2
19/01:30am 25.2 30.3 24.0 93 0.8 NNE 4 7 2 4 1010.0 1009.7 0.2
19/01:00am 25.3 30.1 24.1 93 0.8 NE 6 7 3 4 1010.0 1009.7 0.2
19/12:30am 25.2 31.0 24.0 93 0.8 CALM 0 0 0 0 1010.1 1009.8 0.2
19/12:00am 25.0 30.5 23.4 91 1.1 CALM 0 0 0 0 1010.2 1009.9 0.2
 
Date/Time
EST
Temp
°C
App
Temp
°C
Dew
Point
°C
Rel
Hum
%
Delta-T
°C
Wind Press
QNH
hPa
Press
MSL
hPa
Rain since
9am
mm
Dir  Spd
km/h
Gust
km/h
Spd
kts
Gust
kts
18/11:30pm 25.0 30.3 23.1 89 1.3 CALM 0 0 0 0 1010.3 1010.0 0.2
18/11:00pm 25.1 30.4 23.0 88 1.4 CALM 0 0 0 0 1010.4 1010.1 0.2
18/10:30pm 25.3 30.5 22.8 86 1.7 CALM 0 0 0 0 1010.3 1010.0 0.2
18/10:00pm 25.8 30.8 22.5 82 2.2 CALM 0 0 0 0 1010.0 1009.7 0.2
18/09:30pm 26.3 31.3 23.2 83 2.1 WNW 2 9 1 5 1009.9 1009.6 0.2
18/09:00pm 26.1 31.7 23.6 86 1.7 CALM 0 0 0 0 1009.4 1009.1 0.2
18/08:30pm 26.5 32.2 23.8 85 1.9 CALM 0 0 0 0 1009.2 1008.9 0.2
18/08:00pm 26.8 32.0 22.8 79 2.7 CALM 0 0 0 0 1009.2 1008.9 0.2
18/07:30pm 27.7 32.9 22.9 75 3.3 CALM 0 0 0 0 1009.3 1009.0 0.2
18/07:00pm 28.3 32.2 22.5 71 3.9 NW 6 11 3 6 1009.2 1008.9 0.2
18/06:30pm 28.9 34.1 22.9 70 4.1 CALM 0 6 0 3 1008.8 1008.5 0.2
18/06:00pm 29.2 33.2 22.7 68 4.4 NW 6 15 3 8 1008.8 1008.5 0.2

Other Formats:

Comma delimited format used in spreadsheet applications
http://www.bom.gov.au/fwo/IDQ60801/IDQ60801.94171.axf

JavaScript Object Notation format (JSON) in row-major order
http://www.bom.gov.au/fwo/IDQ60801/IDQ60801.94171.json